Time;durP1;ratioP1;P1;durP2;ratioP2;P2;SDS_P1;SDS_P2;PMS_P1;PMS_P2;Temp;Humidity;BMP_temperature;BMP_pressure;BME280_temperature;BME280_humidity;BME280_pressure;Samples;Min_cycle;Max_cycle;Signal;HPM_P1;HPM_P2
2021/05/30 00:02:01;;;;;;;4.72;3.10;;;;;;;21.02;55.15;99763.44;5106191;28;20034;-65
2021/05/30 00:04:27;;;;;;;6.43;3.33;;;;;;;20.95;54.49;99765.41;5106544;28;20036;-66
2021/05/30 00:06:52;;;;;;;6.35;3.50;;;;;;;20.96;53.92;99756.28;5106558;28;20031;-65
2021/05/30 00:09:18;;;;;;;20.95;6.75;;;;;;;20.89;53.84;99766.34;5106287;28;20468;-65
2021/05/30 00:11:43;;;;;;;5.78;4.00;;;;;;;20.96;52.37;99754.41;5106250;28;20028;-66
2021/05/30 00:14:09;;;;;;;7.68;4.93;;;;;;;21.01;51.84;99761.81;5106175;28;20236;-65
2021/05/30 00:16:35;;;;;;;7.97;3.65;;;;;;;20.99;50.49;99751.28;5106187;28;20043;-65
2021/05/30 00:19:01;;;;;;;3.92;3.25;;;;;;;20.95;50.51;99765.41;5105926;28;20294;-65
2021/05/30 00:21:27;;;;;;;6.90;3.42;;;;;;;20.98;50.04;99757.69;5106885;28;20196;-65
2021/05/30 00:23:53;;;;;;;5.53;3.80;;;;;;;20.97;49.87;99748.00;5105991;28;20024;-65
2021/05/30 00:26:18;;;;;;;8.35;3.33;;;;;;;20.90;49.79;99751.81;5105731;28;20024;-65
2021/05/30 00:28:44;;;;;;;5.00;3.88;;;;;;;20.79;49.72;99752.56;5106100;28;20047;-65
2021/05/30 00:31:09;;;;;;;6.97;4.68;;;;;;;20.85;49.54;99757.06;5106168;28;20035;-65
2021/05/30 00:33:35;;;;;;;5.43;3.75;;;;;;;20.90;49.09;99751.81;5105525;28;20291;-65
2021/05/30 00:36:00;;;;;;;5.63;4.20;;;;;;;20.84;49.19;99752.75;5105803;28;20321;-65
2021/05/30 00:38:26;;;;;;;5.47;3.45;;;;;;;20.86;48.78;99759.53;5106153;28;20026;-65
2021/05/30 00:40:54;;;;;;;4.55;3.63;;;;;;;20.90;47.79;99758.03;5105873;28;20050;-65
2021/05/30 00:43:20;;;;;;;4.72;3.60;;;;;;;20.83;47.55;99751.91;5105896;28;20027;-65
2021/05/30 00:45:48;;;;;;;5.90;3.53;;;;;;;20.95;46.85;99760.84;5105542;28;20043;-65
2021/05/30 00:48:14;;;;;;;5.50;3.45;;;;;;;20.77;47.69;99758.19;5105443;28;20028;-66
2021/05/30 00:50:39;;;;;;;5.10;3.42;;;;;;;20.88;47.23;99762.81;5105807;28;20043;-65
2021/05/30 00:53:06;;;;;;;3.90;3.03;;;;;;;20.83;46.13;99762.69;5105654;28;20384;-66
2021/05/30 00:55:32;;;;;;;5.78;3.53;;;;;;;20.75;46.51;99762.97;5105513;28;20028;-65
2021/05/30 00:57:58;;;;;;;6.10;3.20;;;;;;;20.73;46.35;99763.19;5105431;28;20035;-65
2021/05/30 01:00:24;;;;;;;4.30;3.17;;;;;;;20.62;46.35;99766.66;5105696;28;20040;-65
2021/05/30 01:02:49;;;;;;;4.68;3.25;;;;;;;20.60;46.29;99755.31;5087357;28;20024;-65
2021/05/30 01:05:15;;;;;;;4.07;3.20;;;;;;;20.63;46.23;99759.41;5105694;28;20340;-65
2021/05/30 01:07:46;;;;;;;5.22;3.13;;;;;;;20.55;46.03;99755.16;5105350;28;20024;-66
2021/05/30 01:10:33;;;;;;;5.13;3.53;;;;;;;20.48;46.14;99758.97;5105075;28;20309;-65
2021/05/30 01:12:59;;;;;;;4.90;3.50;;;;;;;20.48;46.40;99757.13;5087032;28;20376;-65
2021/05/30 01:15:26;;;;;;;4.70;3.13;;;;;;;20.49;45.91;99756.06;5105456;28;20225;-65
2021/05/30 01:17:54;;;;;;;4.40;2.63;;;;;;;20.55;45.44;99752.47;5105088;28;20087;-65
2021/05/30 01:20:21;;;;;;;6.03;3.08;;;;;;;20.54;45.65;99755.38;5105290;28;20043;-65
2021/05/30 01:22:48;;;;;;;4.88;2.72;;;;;;;20.49;45.44;99750.69;5105005;28;20040;-65
2021/05/30 01:25:20;;;;;;;7.40;3.00;;;;;;;20.37;46.05;99752.47;5105098;28;20105;-65
2021/05/30 01:27:47;;;;;;;3.17;2.70;;;;;;;20.38;46.18;99754.09;5104736;28;20091;-65
2021/05/30 01:30:15;;;;;;;3.58;2.63;;;;;;;20.33;45.93;99756.66;5104971;28;20070;-65
2021/05/30 01:32:40;;;;;;;4.25;3.00;;;;;;;20.23;46.30;99757.19;5104693;28;20088;-65
2021/05/30 01:35:07;;;;;;;3.80;2.72;;;;;;;20.27;46.14;99755.69;5086763;28;20111;-65
2021/05/30 01:37:32;;;;;;;5.07;2.85;;;;;;;20.16;46.75;99756.44;5086796;28;20032;-66
2021/05/30 01:39:58;;;;;;;4.47;2.72;;;;;;;20.09;46.53;99763.75;5104665;28;20156;-66
2021/05/30 01:42:24;;;;;;;3.70;2.53;;;;;;;20.07;46.76;99757.78;5104682;28;20020;-65
2021/05/30 01:44:49;;;;;;;2.97;2.38;;;;;;;19.97;46.48;99752.91;5104360;28;20047;-65
2021/05/30 01:47:15;;;;;;;4.15;2.78;;;;;;;19.99;46.02;99758.88;5104427;28;20099;-66
2021/05/30 01:49:41;;;;;;;3.30;2.42;;;;;;;19.86;45.98;99752.81;5104746;28;20318;-65
2021/05/30 01:52:07;;;;;;;7.03;2.80;;;;;;;19.94;45.53;99764.09;5104738;28;20079;-65
2021/05/30 01:54:35;;;;;;;5.38;2.45;;;;;;;19.86;45.64;99764.41;5104282;28;20044;-65
2021/05/30 01:57:07;;;;;;;3.33;2.95;;;;;;;19.81;45.91;99766.09;5086286;28;20027;-65
2021/05/30 01:59:33;;;;;;;3.95;2.40;;;;;;;19.64;46.37;99763.94;5104505;28;20028;-65
2021/05/30 02:01:59;;;;;;;3.22;2.53;;;;;;;19.68;46.15;99762.47;5104187;28;20036;-65
2021/05/30 02:04:29;;;;;;;4.10;3.03;;;;;;;19.71;46.53;99763.88;5104427;28;20052;-65
2021/05/30 02:06:55;;;;;;;5.43;2.30;;;;;;;19.62;46.83;99759.84;5104330;28;20133;-65
2021/05/30 02:09:21;;;;;;;8.70;2.90;;;;;;;19.67;46.86;99762.69;5104359;28;20220;-65
2021/05/30 02:11:47;;;;;;;3.53;2.53;;;;;;;19.60;47.58;99764.63;5104091;28;20031;-66
2021/05/30 02:14:14;;;;;;;5.82;3.10;;;;;;;19.59;47.69;99760.28;5100519;28;20051;-65
2021/05/30 02:16:42;;;;;;;3.45;2.85;;;;;;;19.61;47.10;99767.09;5099443;28;20039;-65
2021/05/30 02:19:08;;;;;;;5.68;2.80;;;;;;;19.52;47.55;99760.34;5081350;28;20205;-65
2021/05/30 02:21:40;;;;;;;3.85;2.50;;;;;;;19.58;46.89;99762.16;5099328;28;20035;-65
2021/05/30 02:24:06;;;;;;;3.00;2.70;;;;;;;19.41;46.75;99756.47;5099424;28;20054;-65
2021/05/30 02:26:32;;;;;;;3.47;2.97;;;;;;;19.49;46.66;99749.19;5100209;28;20035;-65
2021/05/30 02:28:57;;;;;;;4.40;2.83;;;;;;;19.49;46.86;99754.56;5099384;28;20035;-65
2021/05/30 02:31:23;;;;;;;3.42;3.00;;;;;;;19.56;46.77;99753.50;5100944;28;20229;-65
2021/05/30 02:33:48;;;;;;;8.13;3.00;;;;;;;19.34;47.02;99754.88;5102472;28;20031;-65
2021/05/30 02:36:14;;;;;;;3.88;3.10;;;;;;;19.39;47.55;99753.19;5100521;28;20052;-65
2021/05/30 02:38:39;;;;;;;4.45;2.80;;;;;;;19.34;47.72;99763.75;5100226;28;20031;-65
2021/05/30 02:41:05;;;;;;;4.60;2.92;;;;;;;19.39;47.96;99768.47;5099431;28;20024;-65
2021/05/30 02:43:30;;;;;;;5.72;3.03;;;;;;;19.31;48.06;99769.56;5099960;28;20082;-68
2021/05/30 02:45:56;;;;;;;10.50;3.25;;;;;;;19.24;48.30;99763.41;5098564;28;20050;-67
2021/05/30 02:48:21;;;;;;;4.60;3.10;;;;;;;19.21;48.67;99763.84;5099787;28;20084;-67
2021/05/30 02:50:58;;;;;;;3.97;3.17;;;;;;;19.09;49.24;99766.41;5099039;28;20326;-67
2021/05/30 02:53:25;;;;;;;6.72;3.65;;;;;;;19.05;49.52;99769.75;5098707;28;20034;-67
2021/05/30 02:55:50;;;;;;;4.40;3.10;;;;;;;18.92;49.67;99772.53;5096407;28;20028;-68
2021/05/30 02:58:15;;;;;;;4.65;3.08;;;;;;;18.93;49.71;99774.16;5099600;28;20125;-67
2021/05/30 03:00:41;;;;;;;6.28;2.92;;;;;;;18.92;49.46;99776.03;5099632;28;20089;-67
2021/05/30 03:03:06;;;;;;;6.22;3.50;;;;;;;18.93;49.35;99783.03;5099605;28;20024;-67
2021/05/30 03:05:32;;;;;;;7.45;2.88;;;;;;;18.88;49.46;99785.53;5098676;28;20043;-67
2021/05/30 03:07:58;;;;;;;3.00;2.70;;;;;;;18.88;49.14;99777.50;5098685;28;20035;-68
2021/05/30 03:10:23;;;;;;;7.93;2.85;;;;;;;18.95;49.45;99780.97;5099292;28;20036;-67
2021/05/30 03:12:49;;;;;;;7.22;3.13;;;;;;;19.02;49.19;99776.38;5098425;28;20329;-67
2021/05/30 03:15:14;;;;;;;11.40;3.33;;;;;;;19.12;48.60;99773.22;5080383;28;20321;-68
2021/05/30 03:17:40;;;;;;;6.28;2.65;;;;;;;19.20;48.47;99777.50;5099067;28;20027;-67
2021/05/30 03:20:07;;;;;;;3.45;3.00;;;;;;;19.05;48.69;99773.25;5098440;28;20044;-67
2021/05/30 03:22:33;;;;;;;4.00;2.85;;;;;;;19.14;48.63;99777.31;5099447;28;20093;-65
2021/05/30 03:24:58;;;;;;;6.80;2.95;;;;;;;19.15;48.78;99780.84;5098312;28;20325;-67
2021/05/30 03:27:23;;;;;;;3.85;2.58;;;;;;;19.31;48.42;99780.31;5098334;28;20327;-67
2021/05/30 03:29:49;;;;;;;3.65;2.90;;;;;;;19.39;48.07;99776.53;5098980;28;20028;-66
2021/05/30 03:32:14;;;;;;;3.95;3.08;;;;;;;19.35;48.58;99778.81;5098087;28;20367;-66
2021/05/30 03:34:40;;;;;;;8.55;3.17;;;;;;;19.42;47.96;99784.16;5098570;28;20226;-65
2021/05/30 03:37:06;;;;;;;5.53;2.83;;;;;;;19.51;47.68;99780.16;5098954;28;20095;-65
2021/05/30 03:39:32;;;;;;;5.70;3.45;;;;;;;19.45;47.69;99778.34;5098911;28;20081;-65
2021/05/30 03:42:06;;;;;;;3.58;3.05;;;;;;;19.50;47.95;99773.13;5099050;28;20076;-65
2021/05/30 03:44:32;;;;;;;4.57;2.70;;;;;;;19.54;47.60;99776.22;5098500;28;20050;-65
2021/05/30 03:46:57;;;;;;;5.95;3.63;;;;;;;19.28;48.70;99755.75;5097860;28;20032;-65
2021/05/30 03:49:22;;;;;;;4.68;3.47;;;;;;;19.36;48.87;99772.41;5099028;28;20035;-65
2021/05/30 03:51:48;;;;;;;9.13;3.92;;;;;;;19.43;49.38;99767.81;5098686;28;20032;-65
2021/05/30 03:54:13;;;;;;;6.10;3.47;;;;;;;19.55;49.29;99776.00;5097693;28;20035;-65
2021/05/30 03:56:39;;;;;;;5.50;2.90;;;;;;;19.65;48.95;99770.16;5099261;28;20032;-65
2021/05/30 03:59:04;;;;;;;4.15;3.10;;;;;;;19.65;48.95;99770.16;5097683;28;20233;-65
2021/05/30 04:01:30;;;;;;;12.57;3.05;;;;;;;19.76;48.50;99770.25;5099042;28;20087;-65
2021/05/30 04:03:56;;;;;;;5.50;3.08;;;;;;;19.82;48.22;99773.13;5079482;28;20036;-65
2021/05/30 04:06:22;;;;;;;4.90;3.22;;;;;;;19.88;47.91;99773.06;5097851;28;20096;-65
2021/05/30 04:08:48;;;;;;;5.18;3.05;;;;;;;19.84;48.02;99774.53;5098721;28;20096;-66
2021/05/30 04:11:15;;;;;;;7.78;2.85;;;;;;;19.90;47.89;99765.59;5097853;28;20028;-66
2021/05/30 04:13:40;;;;;;;6.53;2.88;;;;;;;20.01;48.00;99764.03;5097835;28;20096;-65
2021/05/30 04:16:06;;;;;;;5.78;3.60;;;;;;;20.08;47.54;99768.31;5098641;28;20035;-65
2021/05/30 04:18:31;;;;;;;3.33;2.80;;;;;;;20.21;46.97;99759.25;5097417;28;20330;-65
2021/05/30 04:20:57;;;;;;;6.22;2.95;;;;;;;20.20;47.19;99760.31;5079792;28;20061;-65
2021/05/30 04:23:22;;;;;;;8.32;3.00;;;;;;;20.25;46.92;99765.84;5098549;28;20061;-65
2021/05/30 04:25:48;;;;;;;4.30;2.90;;;;;;;20.46;46.83;99753.00;5097891;28;20028;-65
2021/05/30 04:28:13;;;;;;;6.32;3.17;;;;;;;20.61;46.74;99753.44;5098774;28;20039;-65
2021/05/30 04:30:39;;;;;;;7.57;2.90;;;;;;;20.94;46.04;99756.53;5101590;28;20038;-65
2021/05/30 04:33:04;;;;;;;10.30;3.42;;;;;;;21.02;46.12;99745.44;5099687;28;20063;-65
2021/05/30 04:35:30;;;;;;;5.88;3.35;;;;;;;21.34;45.98;99748.69;5097701;28;20035;-65
2021/05/30 04:37:55;;;;;;;6.13;3.03;;;;;;;21.50;45.58;99746.38;5098338;28;20062;-65
2021/05/30 04:40:25;;;;;;;3.35;2.55;;;;;;;21.61;45.15;99754.44;5079383;28;20024;-65
2021/05/30 04:42:52;;;;;;;8.63;2.70;;;;;;;21.76;44.26;99745.91;5099656;28;20031;-66
2021/05/30 04:45:19;;;;;;;3.42;2.50;;;;;;;21.96;43.42;99750.97;5101647;28;20040;-65
2021/05/30 04:47:44;;;;;;;4.47;2.30;;;;;;;22.21;42.38;99753.41;5101260;28;20306;-65
2021/05/30 04:50:11;;;;;;;8.25;2.60;;;;;;;22.36;41.87;99750.22;5101534;28;20024;-65
2021/05/30 04:52:37;;;;;;;182.55;10.85;;;;;;;22.33;40.83;99750.69;5102614;28;20073;-66
2021/05/30 04:55:03;;;;;;;5.57;3.05;;;;;;;22.59;40.49;99748.25;5101212;28;20036;-65
2021/05/30 04:57:28;;;;;;;10.43;2.38;;;;;;;22.69;40.71;99749.50;5083119;28;20051;-65
2021/05/30 04:59:54;;;;;;;6.95;2.42;;;;;;;22.63;40.24;99748.59;5102018;28;20089;-65
2021/05/30 05:02:19;;;;;;;8.25;2.22;;;;;;;;;;5100924;28;20318;-65
2021/05/30 05:04:45;;;;;;;4.28;2.58;;;;;;;23.01;39.72;99753.41;5102094;28;20047;-65
2021/05/30 05:07:10;;;;;;;4.18;2.42;;;;;;;23.17;38.49;99739.13;5102377;28;20024;-65
2021/05/30 05:09:35;;;;;;;5.60;2.20;;;;;;;23.52;39.03;99748.88;5103596;28;20207;-66
2021/05/30 05:12:01;;;;;;;8.02;2.95;;;;;;;23.70;37.65;99750.53;5104977;28;20252;-65
2021/05/30 05:14:26;;;;;;;7.75;1.85;;;;;;;23.85;37.74;99750.75;5102833;28;20038;-65
2021/05/30 05:16:52;;;;;;;7.78;2.30;;;;;;;24.28;36.80;99758.16;5100407;28;20027;-66
2021/05/30 05:19:17;;;;;;;3.67;2.10;;;;;;;24.48;36.71;99755.69;5101736;28;20032;-65
2021/05/30 05:21:43;;;;;;;4.45;2.60;;;;;;;24.44;36.33;99757.25;5103374;28;20047;-65
2021/05/30 05:24:09;;;;;;;3.60;2.00;;;;;;;24.26;36.31;99754.84;5104812;28;20040;-66
2021/05/30 05:26:34;;;;;;;2.40;2.00;;;;;;;24.13;36.45;99752.50;5104923;28;20044;-65
2021/05/30 05:28:59;;;;;;;5.05;2.20;;;;;;;24.03;36.51;99758.59;5104784;28;20042;-66
2021/05/30 05:31:25;;;;;;;2.95;2.03;;;;;;;23.76;37.22;99752.22;5105230;28;20027;-65
2021/05/30 05:33:50;;;;;;;3.42;2.08;;;;;;;23.78;37.12;99752.81;5104727;28;20355;-65
2021/05/30 05:36:17;;;;;;;5.30;2.53;;;;;;;23.73;37.54;99752.72;5104837;28;20030;-65
2021/05/30 05:38:43;;;;;;;9.65;2.55;;;;;;;24.03;37.06;99757.78;5104750;28;20032;-65
2021/05/30 05:41:08;;;;;;;4.18;2.03;;;;;;;24.32;35.56;99758.47;5104639;28;20031;-65
2021/05/30 05:43:34;;;;;;;5.68;2.08;;;;;;;24.70;34.70;99762.97;5099985;28;20333;-66
2021/05/30 05:45:59;;;;;;;6.57;1.73;;;;;;;24.66;34.60;99757.25;5101104;28;20040;-65
2021/05/30 05:48:25;;;;;;;4.18;2.65;;;;;;;24.78;34.23;99757.91;5099945;28;20020;-65
2021/05/30 05:50:50;;;;;;;5.20;1.80;;;;;;;25.52;33.77;99762.72;5100225;28;20040;-66
2021/05/30 05:53:16;;;;;;;8.73;2.25;;;;;;;25.67;33.49;99762.06;5099656;28;20028;-65
2021/05/30 05:55:42;;;;;;;7.55;1.90;;;;;;;25.80;33.19;99764.31;5101109;28;20039;-66
2021/05/30 05:58:08;;;;;;;6.45;2.08;;;;;;;25.79;32.83;99759.97;5103216;28;20028;-65
2021/05/30 06:00:34;;;;;;;5.18;2.13;;;;;;;25.85;32.65;99758.91;5102635;28;20044;-66
2021/05/30 06:02:59;;;;;;;2.90;1.80;;;;;;;25.96;32.86;99759.78;5099650;28;20023;-66
2021/05/30 06:05:25;;;;;;;266.42;113.55;;;;;;;26.03;32.90;99768.53;5100967;28;20031;-66
2021/05/30 06:07:53;;;;;;;302.27;134.80;;;;;;;25.63;33.71;99753.59;5102728;28;20039;-65
2021/05/30 06:10:23;;;;;;;51.65;23.77;;;;;;;25.40;33.62;99759.38;5103249;28;20276;-66
2021/05/30 06:12:50;;;;;;;16.13;6.57;;;;;;;24.63;34.64;99760.47;5100411;28;20036;-65
2021/05/30 06:15:16;;;;;;;57.42;21.42;;;;;;;24.71;34.66;99756.47;5098958;28;20036;-66
2021/05/30 06:17:42;;;;;;;19.35;11.15;;;;;;;25.35;34.16;99752.03;5097006;28;20027;-66
2021/05/30 06:20:08;;;;;;;268.58;108.45;;;;;;;25.62;33.93;99751.94;5099342;28;20044;-66
2021/05/30 06:22:34;;;;;;;339.88;173.10;;;;;;;26.06;33.64;99757.16;5099274;28;20221;-66
2021/05/30 06:24:59;;;;;;;448.13;247.07;;;;;;;26.65;32.74;99762.34;5102646;28;20028;-66
2021/05/30 06:27:25;;;;;;;38.50;16.50;;;;;;;27.06;31.37;99755.16;5102451;28;20034;-66
2021/05/30 06:29:50;;;;;;;408.50;207.60;;;;;;;27.54;31.24;99747.53;5099814;28;20107;-66
2021/05/30 06:32:16;;;;;;;467.20;260.17;;;;;;;27.78;30.82;99751.34;5100286;28;20251;-66
2021/05/30 06:34:42;;;;;;;448.92;238.52;;;;;;;27.57;30.89;99749.72;5099119;28;20043;-66
2021/05/30 06:37:07;;;;;;;290.40;126.95;;;;;;;27.74;30.95;99742.09;5103249;28;20059;-66
2021/05/30 06:39:32;;;;;;;749.20;396.13;;;;;;;28.29;30.59;99740.38;5101249;28;20077;-66
2021/05/30 06:41:58;;;;;;;202.52;87.55;;;;;;;28.52;29.67;99741.63;5100099;28;20356;-66
2021/05/30 06:44:23;;;;;;;529.88;275.85;;;;;;;28.70;29.51;99737.44;5098653;28;20039;-66
2021/05/30 06:46:49;;;;;;;130.18;51.50;;;;;;;28.20;29.56;99744.72;5099835;28;20248;-66
2021/05/30 06:49:15;;;;;;;850.40;477.45;;;;;;;28.52;29.46;99745.16;5080517;28;20081;-66
2021/05/30 06:51:40;;;;;;;362.77;165.43;;;;;;;28.09;29.95;99746.66;5102278;28;20270;-66
2021/05/30 06:54:06;;;;;;;315.35;129.38;;;;;;;28.33;29.57;99746.06;5102267;28;20047;-66
2021/05/30 06:56:32;;;;;;;255.20;116.70;;;;;;;28.46;29.54;99743.56;5099331;28;20214;-66
2021/05/30 06:58:59;;;;;;;386.98;188.38;;;;;;;28.63;29.07;99745.09;5099727;28;20607;-66
2021/05/30 07:01:25;;;;;;;280.23;129.95;;;;;;;28.70;29.36;99721.91;5098866;28;20024;-66
2021/05/30 07:03:51;;;;;;;54.88;21.05;;;;;;;28.84;28.92;99738.47;5102521;28;20012;-66
2021/05/30 07:06:18;;;;;;;13.15;4.72;;;;;;;28.66;29.04;99747.28;5100487;28;20066;-66
2021/05/30 07:08:44;;;;;;;74.45;29.20;;;;;;;28.65;29.47;99742.91;5099139;28;20028;-66
2021/05/30 07:11:09;;;;;;;9.52;4.28;;;;;;;27.77;31.13;99738.00;5098267;28;20050;-66
2021/05/30 07:13:35;;;;;;;22.33;8.07;;;;;;;27.43;31.16;99741.28;5100324;28;20087;-66
2021/05/30 07:16:01;;;;;;;18.88;5.82;;;;;;;27.54;31.88;99740.19;5101497;28;20389;-66
2021/05/30 07:18:26;;;;;;;5.75;2.63;;;;;;;27.35;31.87;99739.13;5099762;28;20024;-66
2021/05/30 07:20:53;;;;;;;5.78;2.60;;;;;;;26.89;32.58;99738.22;5098716;28;20081;-66
2021/05/30 07:23:19;;;;;;;5.10;2.88;;;;;;;26.17;34.44;99745.28;5099340;28;20065;-66
2021/05/30 07:25:45;;;;;;;5.07;3.08;;;;;;;26.52;34.72;99741.91;5098545;28;20195;-66
2021/05/30 07:28:10;;;;;;;8.82;4.35;;;;;;;26.96;34.08;99736.88;5098575;28;20052;-66
2021/05/30 07:30:36;;;;;;;6.53;2.88;;;;;;;27.23;33.44;99744.00;5100267;28;20106;-66
2021/05/30 07:33:03;;;;;;;596.65;244.20;;;;;;;28.13;32.11;99731.41;5098765;28;20229;-66
2021/05/30 07:35:29;;;;;;;1574.80;700.58;;;;;;;28.91;31.34;99730.78;5100733;28;20090;-66
2021/05/30 07:37:56;;;;;;;31.55;13.20;;;;;;;27.99;31.91;99725.72;5102604;28;20028;-66
2021/05/30 07:40:22;;;;;;;156.32;67.60;;;;;;;28.52;31.66;99730.72;5084117;28;20048;-66
2021/05/30 07:42:48;;;;;;;27.60;11.55;;;;;;;28.70;32.26;99726.53;5084456;28;20318;-66
2021/05/30 07:45:15;;;;;;;45.30;20.38;;;;;;;29.12;31.10;99724.09;5102248;28;20085;-66
2021/05/30 07:47:41;;;;;;;271.60;129.93;;;;;;;29.71;30.62;99725.81;5102759;28;20077;-66
2021/05/30 07:50:07;;;;;;;170.88;71.30;;;;;;;29.73;30.86;99728.25;5102057;28;20369;-66
2021/05/30 07:52:33;;;;;;;143.70;59.95;;;;;;;30.02;30.15;99729.03;5102130;28;20035;-64
2021/05/30 07:54:58;;;;;;;17.30;8.35;;;;;;;29.94;29.70;99723.38;5102296;28;20067;-66
2021/05/30 07:57:24;;;;;;;7.57;3.28;;;;;;;29.24;30.67;99723.75;5102116;28;20024;-66
2021/05/30 07:59:49;;;;;;;2.10;1.88;;;;;;;29.64;29.90;99716.31;5102506;28;20039;-63
2021/05/30 08:02:14;;;;;;;31.77;13.98;;;;;;;29.98;29.98;99725.25;5102381;28;20035;-63
2021/05/30 08:04:40;;;;;;;4.35;1.75;;;;;;;29.28;29.35;99719.34;5101965;28;20365;-64
2021/05/30 08:07:05;;;;;;;2.08;1.90;;;;;;;28.84;30.07;99719.41;5084254;28;20049;-65
2021/05/30 08:09:31;;;;;;;7.65;2.58;;;;;;;28.53;30.34;99722.28;5102570;28;20081;-66
2021/05/30 08:11:58;;;;;;;2.08;1.88;;;;;;;27.55;31.58;99727.41;5102013;28;20034;-66
2021/05/30 08:14:24;;;;;;;3.65;2.80;;;;;;;27.55;32.76;99725.50;5102039;28;20040;-66
2021/05/30 08:16:51;;;;;;;4.60;2.10;;;;;;;27.28;32.25;99712.22;5102203;28;20067;-66
2021/05/30 08:19:16;;;;;;;4.88;2.00;;;;;;;27.68;32.31;99716.00;5105722;28;20032;-66
2021/05/30 08:21:43;;;;;;;3.75;2.13;;;;;;;27.24;33.21;99711.13;5106095;28;20035;-66
2021/05/30 08:24:09;;;;;;;7.18;2.75;;;;;;;27.61;32.74;99710.84;5105958;28;20304;-65
2021/05/30 08:26:35;;;;;;;3.13;2.08;;;;;;;27.63;31.88;99718.72;5105645;28;20057;-66
2021/05/30 08:29:00;;;;;;;9.70;2.45;;;;;;;27.55;33.15;99714.63;5106033;28;20035;-66
2021/05/30 08:31:26;;;;;;;5.70;2.20;;;;;;;27.93;31.56;99715.13;5106144;28;20059;-66
2021/05/30 08:33:51;;;;;;;2.55;1.77;;;;;;;27.95;31.36;99721.91;5105440;28;20314;-66
2021/05/30 08:36:17;;;;;;;13.52;2.25;;;;;;;27.97;32.08;99718.91;5105888;28;20032;-66
2021/05/30 08:38:43;;;;;;;4.47;2.00;;;;;;;28.61;30.39;99724.41;5105732;28;20078;-66
2021/05/30 08:41:10;;;;;;;4.75;1.95;;;;;;;28.38;31.31;99726.97;5105324;28;20046;-66
2021/05/30 08:43:35;;;;;;;3.83;2.45;;;;;;;28.90;31.12;99719.06;5105693;28;20040;-66
2021/05/30 08:46:01;;;;;;;4.28;2.20;;;;;;;29.23;30.69;99722.94;5087574;28;20051;-63
2021/05/30 08:48:26;;;;;;;3.47;2.10;;;;;;;29.20;30.72;99722.69;5105133;28;20024;-63
2021/05/30 08:51:05;;;;;;;3.45;2.38;;;;;;;29.43;29.76;99727.44;5106014;28;20077;-63
2021/05/30 08:53:33;;;;;;;2.92;1.73;;;;;;;29.68;29.03;99720.91;5105981;28;20121;-66
2021/05/30 08:55:58;;;;;;;4.35;2.00;;;;;;;29.49;30.93;99722.75;5104936;28;20040;-66
2021/05/30 08:58:46;;;;;;;67.82;7.20;;;;;;;29.40;30.93;99718.97;5105401;28;20063;-66
2021/05/30 09:01:17;;;;;;;20.52;2.85;;;;;;;29.68;30.37;99712.72;5105337;28;20068;-66
2021/05/30 09:04:09;;;;;;;6.38;2.40;;;;;;;29.30;30.44;99713.63;5105641;28;20032;-66
2021/05/30 09:06:37;;;;;;;2.47;2.13;;;;;;;29.53;30.71;99716.44;5105494;28;20370;-66
2021/05/30 09:09:05;;;;;;;2.72;2.10;;;;;;;29.49;30.97;99715.38;5105237;28;20039;-66
2021/05/30 09:11:51;;;;;;;16.25;3.47;;;;;;;29.49;31.52;99722.75;5105593;28;20038;-66
2021/05/30 09:14:25;;;;;;;6.38;2.20;;;;;;;29.55;30.30;99714.22;5105195;28;20230;-66
2021/05/30 09:17:04;;;;;;;3.78;2.72;;;;;;;29.61;30.43;99716.91;5105189;28;20028;-66
2021/05/30 09:19:46;;;;;;;3.17;1.98;;;;;;;29.37;30.44;99722.28;5105085;28;20036;-66
2021/05/30 09:22:17;;;;;;;6.85;2.13;;;;;;;27.55;34.34;99716.53;5105678;28;20069;-66
2021/05/30 09:24:52;;;;;;;36.67;4.45;;;;;;;27.72;34.33;99721.69;5091676;28;20201;-66
2021/05/30 09:27:18;;;;;;;18.67;3.38;;;;;;;28.04;34.03;99719.44;5105107;28;20040;-66
2021/05/30 09:29:45;;;;;;;4.47;2.30;;;;;;;27.87;34.50;99722.47;5104469;28;20028;-66
2021/05/30 09:32:10;;;;;;;3.33;2.28;;;;;;;27.61;34.43;99723.63;5104834;28;20051;-66
2021/05/30 09:34:42;;;;;;;6.10;2.47;;;;;;;27.45;35.48;99719.25;5104593;28;20028;-66
2021/05/30 09:37:09;;;;;;;4.47;2.50;;;;;;;27.17;34.84;99713.28;5104746;28;20103;-66
2021/05/30 09:39:46;;;;;;;3.65;2.50;;;;;;;27.12;35.77;99712.47;5104699;28;20053;-66
2021/05/30 09:42:36;;;;;;;5.55;2.50;;;;;;;26.98;36.49;99710.25;5104477;28;20035;-66
2021/05/30 09:45:09;;;;;;;43.72;3.97;;;;;;;27.10;35.54;99712.75;5104262;28;20095;-66
2021/05/30 09:47:46;;;;;;;3.97;2.67;;;;;;;27.41;34.74;99718.19;5103971;28;20035;-66
2021/05/30 09:50:18;;;;;;;2.75;2.30;;;;;;;27.22;35.31;99709.75;5080695;28;20035;-66
2021/05/30 09:52:48;;;;;;;5.45;2.10;;;;;;;27.39;35.26;99704.03;5097515;28;20103;-66
2021/05/30 09:55:21;;;;;;;3.47;2.30;;;;;;;27.59;34.42;99698.56;5099288;28;20047;-66
2021/05/30 09:58:18;;;;;;;3.42;2.10;;;;;;;27.77;34.26;99695.28;5099759;28;20028;-65
2021/05/30 10:00:57;;;;;;;3.08;2.28;;;;;;;27.27;35.93;99690.72;5100139;28;20043;-66
2021/05/30 10:03:24;;;;;;;8.60;2.95;;;;;;;27.39;35.78;99698.59;5102060;28;20050;-66
2021/05/30 10:05:49;;;;;;;4.30;2.13;;;;;;;27.37;35.55;99703.50;5103069;28;20040;-66
2021/05/30 10:08:16;;;;;;;8.07;2.70;;;;;;;27.17;35.20;99693.44;5099981;28;20047;-66
2021/05/30 10:10:42;;;;;;;3.95;2.22;;;;;;;27.08;34.95;99697.81;5082597;28;20036;-65
2021/05/30 10:13:08;;;;;;;3.50;2.33;;;;;;;26.85;35.52;99699.91;5099352;28;20058;-66
2021/05/30 10:15:33;;;;;;;7.22;3.13;;;;;;;26.93;35.78;99696.66;5099571;28;20297;-66
2021/05/30 10:18:21;;;;;;;5.78;2.42;;;;;;;26.96;36.21;99689.84;5101992;28;20032;-66
2021/05/30 10:20:50;;;;;;;4.18;2.40;;;;;;;27.20;35.92;99688.28;5101763;28;20035;-66
2021/05/30 10:23:18;;;;;;;4.70;2.28;;;;;;;27.34;34.47;99686.66;5100501;28;20052;-66
2021/05/30 10:25:44;;;;;;;5.20;2.83;;;;;;;27.63;34.91;99686.09;5099782;28;20024;-66
2021/05/30 10:28:10;;;;;;;5.30;2.17;;;;;;;27.72;34.83;99683.63;5102391;28;20126;-66
2021/05/30 10:30:37;;;;;;;2.63;2.40;;;;;;;27.43;33.47;99686.91;5101751;28;20063;-65
2021/05/30 10:33:29;;;;;;;2.58;2.38;;;;;;;27.51;33.27;99689.06;5099224;28;20027;-66
2021/05/30 10:35:55;;;;;;;4.57;2.78;;;;;;;27.69;33.38;99695.88;5094493;28;20044;-65
2021/05/30 10:38:42;;;;;;;4.40;2.08;;;;;;;27.80;33.56;99688.50;5099488;28;20218;-65
2021/05/30 10:41:14;;;;;;;5.40;2.38;;;;;;;27.86;33.22;99698.25;5095986;28;20058;-66
2021/05/30 10:43:40;;;;;;;5.30;2.58;;;;;;;28.08;32.35;99690.56;5100028;28;20032;-66
2021/05/30 10:46:06;;;;;;;6.57;2.60;;;;;;;28.33;32.71;99697.06;5098988;28;20213;-65
2021/05/30 10:48:33;;;;;;;9.48;2.08;;;;;;;28.37;31.96;99693.50;5099234;28;20180;-65
2021/05/30 10:53:37;;;;;;;;;;;;;;;27.95;32.14;99691.97;5083276;28;20341;-65
2021/05/30 10:56:25;;;;;;;5.90;2.25;;;;;;;27.74;31.53;99695.84;5098650;28;19916;-65
2021/05/30 10:59:05;;;;;;;10.18;2.28;;;;;;;27.72;32.03;99700.75;5098138;28;20108;-65
2021/05/30 11:01:34;;;;;;;10.82;2.20;;;;;;;27.55;32.06;99698.31;5098642;28;20042;-67
2021/05/30 11:04:24;;;;;;;2.72;2.03;;;;;;;27.47;32.33;99704.31;5099381;28;20229;-67
2021/05/30 11:07:02;;;;;;;3.88;1.65;;;;;;;27.42;31.74;99698.06;5101847;28;20073;-67
2021/05/30 11:09:50;;;;;;;4.03;1.60;;;;;;;26.92;31.99;99695.00;5099989;28;20036;-67
2021/05/30 11:12:17;;;;;;;9.70;1.75;;;;;;;26.65;33.10;99706.09;5101311;28;20046;-67
2021/05/30 11:15:22;;;;;;;8.48;1.75;;;;;;;26.62;32.95;99703.13;5101012;28;20218;-67
2021/05/30 11:17:52;;;;;;;4.55;1.42;;;;;;;26.48;32.64;99707.44;5033674;28;20061;-67
2021/05/30 11:20:20;;;;;;;4.38;1.75;;;;;;;26.40;32.93;99709.56;5086118;28;20047;-67
2021/05/30 11:22:53;;;;;;;9.38;2.67;;;;;;;26.35;32.95;99701.41;5097256;28;20020;-67
2021/05/30 11:25:45;;;;;;;6.05;1.90;;;;;;;26.58;32.81;99702.03;5076686;28;20073;-67
2021/05/30 11:28:26;;;;;;;6.35;2.22;;;;;;;26.58;32.50;99704.72;5091515;28;20031;-67
2021/05/30 11:31:08;;;;;;;2.90;1.70;;;;;;;26.37;32.72;99695.72;5097720;28;20035;-67
2021/05/30 11:33:45;;;;;;;4.32;1.70;;;;;;;26.33;33.51;99703.56;5098138;28;20031;-68
2021/05/30 11:36:24;;;;;;;6.18;1.67;;;;;;;26.43;32.75;99701.97;5097668;28;20333;-67